createdAt,value
2018-12-29T00:01:23.513Z,53.73
2018-12-29T00:03:50.163Z,50.10
2018-12-29T00:06:16.890Z,50.80
2018-12-29T00:08:43.332Z,49.60
2018-12-29T00:11:09.924Z,51.60
2018-12-29T00:13:36.381Z,43.73
2018-12-29T00:16:02.852Z,52.03
2018-12-29T00:18:29.308Z,55.37
2018-12-29T00:20:55.680Z,54.33
2018-12-29T00:23:22.031Z,53.30
2018-12-29T00:25:48.617Z,52.93
2018-12-29T00:28:15.071Z,45.00
2018-12-29T00:30:41.543Z,45.87
2018-12-29T00:33:07.927Z,52.10
2018-12-29T00:35:34.397Z,54.07
2018-12-29T00:38:00.948Z,52.73
2018-12-29T00:40:27.319Z,50.73
2018-12-29T00:42:53.684Z,51.53
2018-12-29T00:45:20.156Z,53.30
2018-12-29T00:47:46.708Z,51.57
2018-12-29T00:50:13.290Z,46.10
2018-12-29T00:52:39.632Z,51.13
2018-12-29T00:55:05.980Z,52.73
2018-12-29T00:57:32.376Z,46.50
2018-12-29T00:59:58.832Z,50.67
2018-12-29T01:02:25.436Z,45.00
2018-12-29T01:04:51.985Z,46.77
2018-12-29T01:07:18.376Z,46.50
2018-12-29T01:09:44.764Z,46.13
2018-12-29T01:12:11.532Z,45.80
2018-12-29T01:14:37.928Z,45.73
2018-12-29T01:17:04.489Z,46.33
2018-12-29T01:19:30.940Z,44.80
2018-12-29T01:21:57.412Z,45.00
2018-12-29T01:24:23.761Z,40.67
2018-12-29T01:26:50.135Z,39.77
2018-12-29T01:29:16.494Z,40.07
2018-12-29T01:31:42.968Z,41.47
2018-12-29T01:34:09.356Z,40.37
2018-12-29T01:36:35.814Z,45.47
2018-12-29T01:39:03.708Z,46.40
2018-12-29T01:41:30.252Z,44.00
2018-12-29T01:43:56.728Z,41.40
2018-12-29T01:46:23.175Z,40.10
2018-12-29T01:48:49.744Z,40.50
2018-12-29T01:51:16.191Z,42.30
2018-12-29T01:53:44.580Z,41.87
2018-12-29T01:56:11.107Z,44.50
2018-12-29T01:58:37.704Z,42.87
2018-12-29T02:01:04.260Z,43.53
2018-12-29T02:03:30.672Z,46.70
2018-12-29T02:05:57.063Z,43.63
2018-12-29T02:08:23.600Z,43.50
2018-12-29T02:10:50.161Z,37.03
2018-12-29T02:13:16.637Z,43.40
2018-12-29T02:15:43.095Z,42.73
2018-12-29T02:18:09.484Z,45.77
2018-12-29T02:20:35.836Z,44.80
2018-12-29T02:23:02.395Z,38.60
2018-12-29T02:25:28.881Z,44.03
2018-12-29T02:27:55.323Z,47.13
2018-12-29T02:30:21.906Z,43.27
2018-12-29T02:32:48.375Z,47.83
2018-12-29T02:35:14.855Z,41.27
2018-12-29T02:37:41.302Z,40.50
2018-12-29T02:40:07.771Z,45.33
2018-12-29T02:42:34.228Z,50.17
2018-12-29T02:45:00.632Z,49.20
2018-12-29T02:47:27.024Z,50.77
2018-12-29T02:49:53.513Z,48.70
2018-12-29T02:52:19.968Z,47.47
2018-12-29T02:54:46.399Z,47.17
2018-12-29T02:57:12.843Z,45.53
2018-12-29T02:59:39.242Z,47.13
2018-12-29T03:02:05.737Z,46.23
2018-12-29T03:04:32.233Z,47.23
2018-12-29T03:06:58.697Z,53.30
2018-12-29T03:09:25.246Z,55.27
2018-12-29T03:11:51.624Z,48.37
2018-12-29T03:14:17.980Z,49.27
2018-12-29T03:16:44.412Z,48.13
2018-12-29T03:19:10.863Z,54.73
2018-12-29T03:21:37.331Z,48.73
2018-12-29T03:24:03.725Z,51.10
2018-12-29T03:26:30.291Z,48.97
2018-12-29T03:28:56.645Z,57.33
2018-12-29T03:31:23.035Z,51.63
2018-12-29T03:33:49.490Z,53.73
2018-12-29T03:36:15.873Z,58.37
2018-12-29T03:38:42.328Z,43.23
2018-12-29T03:41:08.715Z,51.57
2018-12-29T03:43:35.179Z,50.57
2018-12-29T03:46:01.650Z,53.57
2018-12-29T03:48:28.084Z,57.60
2018-12-29T03:50:54.668Z,49.77
2018-12-29T03:53:21.125Z,57.27
2018-12-29T03:55:47.580Z,53.17
2018-12-29T03:58:13.960Z,49.80
2018-12-29T04:00:40.324Z,57.73
2018-12-29T04:03:06.737Z,57.20
2018-12-29T04:05:33.196Z,55.97
2018-12-29T04:07:59.676Z,56.43
2018-12-29T04:10:26.240Z,56.47
2018-12-29T04:12:52.625Z,54.77
2018-12-29T04:15:19.094Z,59.67
2018-12-29T04:17:45.660Z,52.30
2018-12-29T04:20:12.212Z,56.43
2018-12-29T04:22:38.676Z,59.83
2018-12-29T04:25:05.062Z,55.13
2018-12-29T04:27:31.547Z,60.17
2018-12-29T04:29:57.984Z,54.60
2018-12-29T04:32:24.487Z,55.33
2018-12-29T04:34:50.850Z,50.40
2018-12-29T04:37:17.316Z,56.07
2018-12-29T04:39:43.892Z,51.03
2018-12-29T04:42:10.371Z,53.40
2018-12-29T04:44:36.957Z,60.77
2018-12-29T04:47:03.508Z,64.37
2018-12-29T04:49:29.908Z,57.00
2018-12-29T04:51:56.361Z,58.33
2018-12-29T04:54:22.942Z,60.03
2018-12-29T04:56:49.623Z,56.37
2018-12-29T04:59:16.339Z,59.07
2018-12-29T05:01:42.724Z,51.00
2018-12-29T05:04:09.192Z,60.13
2018-12-29T05:06:35.650Z,61.30
2018-12-29T05:09:03.820Z,63.90
2018-12-29T05:11:30.268Z,57.50
2018-12-29T05:13:56.658Z,58.47
2018-12-29T05:16:23.235Z,56.03
2018-12-29T05:18:49.692Z,65.10
2018-12-29T05:21:16.276Z,53.03
2018-12-29T05:23:42.719Z,57.80
2018-12-29T05:26:09.195Z,68.73
2018-12-29T05:28:35.844Z,58.57
2018-12-29T05:31:02.220Z,70.10
2018-12-29T05:33:28.684Z,60.10
2018-12-29T05:35:55.160Z,64.97
2018-12-29T05:38:21.542Z,53.97
2018-12-29T05:40:48.011Z,66.87
2018-12-29T05:43:14.472Z,69.33
2018-12-29T05:45:40.952Z,59.43
2018-12-29T05:48:07.399Z,66.93
2018-12-29T05:50:33.885Z,63.73
2018-12-29T05:53:00.439Z,62.23
2018-12-29T05:55:26.908Z,67.23
2018-12-29T05:57:53.264Z,62.57
2018-12-29T06:00:19.836Z,62.83
2018-12-29T06:02:46.248Z,58.67
2018-12-29T06:05:12.729Z,59.30
2018-12-29T06:07:39.074Z,58.00
2018-12-29T06:10:05.631Z,64.40
2018-12-29T06:12:32.200Z,60.07
2018-12-29T06:14:58.753Z,66.27
2018-12-29T06:17:25.232Z,64.70
2018-12-29T06:19:51.991Z,68.40
2018-12-29T06:22:18.456Z,67.73
2018-12-29T06:24:44.925Z,60.80
2018-12-29T06:27:11.504Z,58.70
2018-12-29T06:29:37.958Z,63.50
2018-12-29T06:32:04.440Z,66.10
2018-12-29T06:34:30.891Z,69.53
2018-12-29T06:36:57.372Z,57.27
2018-12-29T06:39:23.720Z,65.47
2018-12-29T06:41:50.181Z,65.43
2018-12-29T06:44:16.693Z,68.63
2018-12-29T06:46:43.240Z,62.50
2018-12-29T06:49:09.716Z,70.43
2018-12-29T06:51:36.109Z,63.53
2018-12-29T06:54:02.689Z,66.10
2018-12-29T06:56:29.043Z,72.63
2018-12-29T06:58:55.428Z,57.87
2018-12-29T07:01:21.886Z,64.53
2018-12-29T07:03:48.313Z,63.27
2018-12-29T07:06:14.759Z,62.50
2018-12-29T07:08:41.331Z,70.43
2018-12-29T07:11:07.791Z,66.40
2018-12-29T07:13:34.284Z,58.00
2018-12-29T07:16:00.836Z,57.03
2018-12-29T07:18:27.941Z,68.90
2018-12-29T07:20:54.385Z,65.77
2018-12-29T07:23:21.662Z,61.53
2018-12-29T07:25:48.037Z,62.80
2018-12-29T07:28:14.487Z,65.47
2018-12-29T07:30:40.853Z,64.03
2018-12-29T07:33:07.254Z,57.57
2018-12-29T07:35:33.740Z,62.43
2018-12-29T07:38:00.097Z,60.87
2018-12-29T07:40:26.577Z,56.00
2018-12-29T07:42:53.324Z,72.57
2018-12-29T07:45:19.716Z,63.93
2018-12-29T07:47:46.290Z,66.77
2018-12-29T07:50:12.971Z,67.90
2018-12-29T07:52:39.327Z,62.27
2018-12-29T07:55:05.798Z,76.57
2018-12-29T07:57:32.188Z,65.53
2018-12-29T07:59:59.020Z,61.73
2018-12-29T08:02:25.587Z,56.40
2018-12-29T08:04:52.016Z,60.60
2018-12-29T08:07:18.593Z,55.97
2018-12-29T08:09:45.044Z,61.30
2018-12-29T08:12:11.523Z,72.60
2018-12-29T08:14:37.970Z,65.13
2018-12-29T08:17:04.540Z,63.23
2018-12-29T08:19:31.111Z,59.03
2018-12-29T08:21:57.557Z,52.20
2018-12-29T08:24:24.005Z,55.67
2018-12-29T08:26:50.368Z,62.50
2018-12-29T08:29:16.823Z,58.20
2018-12-29T08:31:43.213Z,58.30
2018-12-29T08:34:09.569Z,55.00
2018-12-29T08:36:35.960Z,54.67
2018-12-29T08:39:03.948Z,66.70
2018-12-29T08:41:30.400Z,58.67
2018-12-29T08:43:56.875Z,57.30
2018-12-29T08:46:23.428Z,60.03
2018-12-29T08:48:49.901Z,63.60
2018-12-29T08:51:16.366Z,57.97
2018-12-29T08:53:42.833Z,60.60
2018-12-29T08:56:09.393Z,67.33
2018-12-29T08:58:35.856Z,69.97
2018-12-29T09:01:02.403Z,58.83
2018-12-29T09:03:28.930Z,61.53
2018-12-29T09:05:55.484Z,61.23
2018-12-29T09:08:22.076Z,56.00
2018-12-29T09:10:48.524Z,53.93
2018-12-29T09:13:14.991Z,49.17
2018-12-29T09:15:41.377Z,57.97
2018-12-29T09:18:07.956Z,58.77
2018-12-29T09:20:34.521Z,47.57
2018-12-29T09:23:00.975Z,48.13
2018-12-29T09:25:27.350Z,45.80
2018-12-29T09:27:53.695Z,49.70
2018-12-29T09:30:20.172Z,47.17
2018-12-29T09:32:46.535Z,53.53
2018-12-29T09:35:13.026Z,51.90
2018-12-29T09:37:39.485Z,47.50
2018-12-29T09:40:05.865Z,52.63
2018-12-29T09:42:32.419Z,47.77
2018-12-29T09:44:58.805Z,49.13
2018-12-29T09:47:25.252Z,45.27
2018-12-29T09:49:51.724Z,47.43
2018-12-29T09:52:18.276Z,49.63
2018-12-29T09:54:44.668Z,43.97
2018-12-29T09:57:11.044Z,43.50
2018-12-29T09:59:37.424Z,46.50
2018-12-29T10:02:03.914Z,44.57
2018-12-29T10:04:30.376Z,40.83
2018-12-29T10:06:56.736Z,42.87
2018-12-29T10:09:23.123Z,52.23
2018-12-29T10:11:49.576Z,49.67
2018-12-29T10:14:16.080Z,50.23
2018-12-29T10:16:42.524Z,41.83
2018-12-29T10:19:08.980Z,46.27
2018-12-29T10:21:35.576Z,41.63
2018-12-29T10:24:02.028Z,46.03
2018-12-29T10:26:28.508Z,50.03
2018-12-29T10:28:54.948Z,45.57
2018-12-29T10:31:21.424Z,42.70
2018-12-29T10:33:47.888Z,43.20
2018-12-29T10:36:14.365Z,39.70
2018-12-29T10:38:40.812Z,44.67
2018-12-29T10:41:07.195Z,37.73
2018-12-29T10:43:33.652Z,43.87
2018-12-29T10:46:00.122Z,41.70
2018-12-29T10:48:26.572Z,40.97
2018-12-29T10:50:53.135Z,42.60
2018-12-29T10:53:19.585Z,38.27
2018-12-29T10:55:46.061Z,38.23
2018-12-29T10:58:12.508Z,39.07
2018-12-29T11:00:38.994Z,39.30
2018-12-29T11:03:05.375Z,36.20
2018-12-29T11:05:31.832Z,33.60
2018-12-29T11:07:58.301Z,39.27
2018-12-29T11:10:24.856Z,35.77
2018-12-29T11:12:51.328Z,33.23
2018-12-29T11:15:17.712Z,31.13
2018-12-29T11:17:44.208Z,34.50
2018-12-29T11:20:10.740Z,29.57
2018-12-29T11:22:37.328Z,34.93
2018-12-29T11:25:03.712Z,33.93
2018-12-29T11:27:30.110Z,34.77
2018-12-29T11:29:56.560Z,31.23
2018-12-29T11:32:23.132Z,35.40
2018-12-29T11:34:49.729Z,34.20
2018-12-29T11:37:16.312Z,33.33
2018-12-29T11:39:42.694Z,33.73
2018-12-29T11:42:09.173Z,28.67
2018-12-29T11:44:35.633Z,32.53
2018-12-29T11:47:02.207Z,30.30
2018-12-29T11:49:28.681Z,34.00
2018-12-29T11:51:55.346Z,31.80
2018-12-29T11:54:21.908Z,35.43
2018-12-29T11:56:48.666Z,32.40
2018-12-29T11:59:15.041Z,32.53
2018-12-29T12:01:41.406Z,29.80
2018-12-29T12:04:07.911Z,32.67
2018-12-29T12:06:34.444Z,33.87
2018-12-29T12:09:01.039Z,31.60
2018-12-29T12:11:27.608Z,30.23
2018-12-29T12:13:53.981Z,35.63
2018-12-29T12:16:20.376Z,42.30
2018-12-29T12:18:46.973Z,35.77
2018-12-29T12:21:13.424Z,32.70
2018-12-29T12:23:39.912Z,36.37
2018-12-29T12:26:06.662Z,36.33
2018-12-29T12:28:33.144Z,32.60
2018-12-29T12:30:59.615Z,37.20
2018-12-29T12:33:26.517Z,34.93
2018-12-29T12:35:52.987Z,31.83
2018-12-29T12:38:19.872Z,31.57
2018-12-29T12:40:46.353Z,32.20
2018-12-29T12:43:13.252Z,31.10
2018-12-29T12:45:40.324Z,33.20
2018-12-29T12:48:06.776Z,34.10
2018-12-29T12:50:33.252Z,30.37
2018-12-29T12:52:59.644Z,33.47
2018-12-29T12:55:26.117Z,34.47
2018-12-29T12:57:52.564Z,29.20
2018-12-29T13:00:19.452Z,33.13
2018-12-29T13:02:45.841Z,28.23
2018-12-29T13:05:12.202Z,26.37
2018-12-29T13:07:38.651Z,30.30
2018-12-29T13:10:07.048Z,31.97
2018-12-29T13:12:33.705Z,31.47
2018-12-29T13:15:00.090Z,33.63
2018-12-29T13:17:26.656Z,28.30
2018-12-29T13:19:53.104Z,31.37
2018-12-29T13:22:19.680Z,31.63
2018-12-29T13:24:46.139Z,30.83
2018-12-29T13:27:12.918Z,35.27
2018-12-29T13:29:39.468Z,32.40
2018-12-29T13:32:05.944Z,32.20
2018-12-29T13:34:32.518Z,33.57
2018-12-29T13:36:58.989Z,35.53
2018-12-29T13:39:25.443Z,37.47
2018-12-29T13:41:51.812Z,36.80
2018-12-29T13:44:18.271Z,40.47
2018-12-29T13:46:44.680Z,40.37
2018-12-29T13:49:11.363Z,42.00
2018-12-29T13:51:37.836Z,34.80
2018-12-29T13:54:04.284Z,36.93
2018-12-29T13:56:30.873Z,41.03
2018-12-29T13:58:57.323Z,39.20
2018-12-29T14:01:23.672Z,38.17
2018-12-29T14:03:50.184Z,39.67
2018-12-29T14:06:16.742Z,40.13
2018-12-29T14:08:43.312Z,40.40
2018-12-29T14:11:09.701Z,42.07
2018-12-29T14:13:36.273Z,40.13
2018-12-29T14:16:02.728Z,43.23
2018-12-29T14:18:29.098Z,40.87
2018-12-29T14:20:55.549Z,37.43
2018-12-29T14:23:22.420Z,37.23
2018-12-29T14:25:48.868Z,32.30
2018-12-29T14:28:15.445Z,34.53
2018-12-29T14:30:41.892Z,36.07
2018-12-29T14:33:08.335Z,33.13
2018-12-29T14:35:34.833Z,42.37
2018-12-29T14:38:01.756Z,38.27
2018-12-29T14:40:28.256Z,33.60
2018-12-29T14:42:54.712Z,36.43
2018-12-29T14:45:21.314Z,36.83
2018-12-29T14:47:47.864Z,38.90
2018-12-29T14:50:14.349Z,34.57
2018-12-29T14:52:40.800Z,31.97
2018-12-29T14:55:07.637Z,34.30
2018-12-29T14:57:33.987Z,34.40
2018-12-29T15:00:00.411Z,35.53
2018-12-29T15:02:26.897Z,34.23
2018-12-29T15:04:53.289Z,37.20
2018-12-29T15:07:19.842Z,30.00
2018-12-29T15:09:46.416Z,35.40
2018-12-29T15:12:12.986Z,33.83
2018-12-29T15:14:41.214Z,34.30
2018-12-29T15:17:07.759Z,31.03
2018-12-29T15:19:34.317Z,28.87
2018-12-29T15:22:00.699Z,32.80
2018-12-29T15:24:27.148Z,35.77
2018-12-29T15:26:53.624Z,33.57
2018-12-29T15:29:20.371Z,34.23
2018-12-29T15:31:46.744Z,38.53
2018-12-29T15:34:13.304Z,39.47
2018-12-29T15:36:39.786Z,38.17
2018-12-29T15:39:06.233Z,41.17
2018-12-29T15:41:32.721Z,37.13
2018-12-29T15:43:59.576Z,36.47
2018-12-29T15:46:26.048Z,36.77
2018-12-29T15:48:52.500Z,41.57
2018-12-29T15:51:19.183Z,37.73
2018-12-29T15:53:45.538Z,35.63
2018-12-29T15:56:12.329Z,51.53
2018-12-29T15:58:38.700Z,34.33
2018-12-29T16:01:05.469Z,37.43
2018-12-29T16:03:31.979Z,35.77
2018-12-29T16:05:58.571Z,34.80
2018-12-29T16:08:25.527Z,39.37
2018-12-29T16:10:52.115Z,34.50
2018-12-29T16:13:18.743Z,40.77
2018-12-29T16:15:45.168Z,36.67
2018-12-29T16:18:11.739Z,35.67
2018-12-29T16:20:38.283Z,37.17
2018-12-29T16:23:04.690Z,35.40
2018-12-29T16:25:31.136Z,42.70
2018-12-29T16:27:58.041Z,38.23
2018-12-29T16:30:24.924Z,43.83
2018-12-29T16:32:51.768Z,40.57
2018-12-29T16:35:18.248Z,34.67
2018-12-29T16:37:44.747Z,38.93
2018-12-29T16:40:11.300Z,36.13
2018-12-29T16:42:37.801Z,42.83
2018-12-29T16:45:04.565Z,40.23
2018-12-29T16:47:31.068Z,44.47
2018-12-29T16:49:57.416Z,39.27
2018-12-29T16:52:24.178Z,37.87
2018-12-29T16:54:50.650Z,39.03
2018-12-29T16:57:17.123Z,39.23
2018-12-29T16:59:43.583Z,38.50
2018-12-29T17:02:10.287Z,33.17
2018-12-29T17:04:36.857Z,39.33
2018-12-29T17:07:03.316Z,39.57
2018-12-29T17:09:33.129Z,36.23
2018-12-29T17:11:59.588Z,32.90
2018-12-29T17:14:26.270Z,34.83
2018-12-29T17:16:53.069Z,34.13
2018-12-29T17:19:19.539Z,39.93
2018-12-29T17:21:46.093Z,36.97
2018-12-29T17:24:12.568Z,36.93
2018-12-29T17:26:39.155Z,33.73
2018-12-29T17:29:05.599Z,31.83
2018-12-29T17:31:32.082Z,36.10
2018-12-29T17:33:58.850Z,37.27
2018-12-29T17:36:25.465Z,37.00
2018-12-29T17:38:51.918Z,34.57
2018-12-29T17:41:18.631Z,32.63
2018-12-29T17:43:45.379Z,39.00
2018-12-29T17:46:11.861Z,37.53
2018-12-29T17:48:38.343Z,33.67
2018-12-29T17:51:04.711Z,32.60
2018-12-29T17:53:31.699Z,34.23
2018-12-29T17:55:58.168Z,29.60
2018-12-29T17:58:24.645Z,35.37
2018-12-29T18:00:51.081Z,33.70
2018-12-29T18:03:17.579Z,31.93
2018-12-29T18:05:44.165Z,30.70
2018-12-29T18:08:10.815Z,33.73
2018-12-29T18:10:37.626Z,29.47
2018-12-29T18:13:04.167Z,30.60
2018-12-29T18:15:30.734Z,33.77
2018-12-29T18:17:57.308Z,37.90
2018-12-29T18:20:23.664Z,29.73
2018-12-29T18:22:50.040Z,34.30
2018-12-29T18:25:16.425Z,35.37
2018-12-29T18:27:43.113Z,36.73
2018-12-29T18:30:09.567Z,33.47
2018-12-29T18:32:36.161Z,30.20
2018-12-29T18:35:02.934Z,35.03
2018-12-29T18:37:29.521Z,37.77
2018-12-29T18:39:56.176Z,38.83
2018-12-29T18:42:22.656Z,37.97
2018-12-29T18:44:50.916Z,37.73
2018-12-29T18:47:17.408Z,38.03
2018-12-29T18:49:43.880Z,42.70
2018-12-29T18:52:10.432Z,36.47
2018-12-29T18:54:37.018Z,39.40
2018-12-29T18:57:03.481Z,39.67
2018-12-29T18:59:29.972Z,38.80
2018-12-29T19:01:57.785Z,45.60
2018-12-29T19:04:24.383Z,41.50
2018-12-29T19:06:50.887Z,40.73
2018-12-29T19:09:17.444Z,38.77
2018-12-29T19:11:43.803Z,40.20
2018-12-29T19:14:11.436Z,42.57
2018-12-29T19:16:38.011Z,43.43
2018-12-29T19:19:04.559Z,45.87
2018-12-29T19:21:31.040Z,43.23
2018-12-29T19:23:57.796Z,40.03
2018-12-29T19:26:24.619Z,51.00
2018-12-29T19:28:51.378Z,43.47
2018-12-29T19:31:18.456Z,45.23
2018-12-29T19:33:44.937Z,45.70
2018-12-29T19:36:11.499Z,42.80
2018-12-29T19:38:37.976Z,41.53
2018-12-29T19:41:04.468Z,36.53
2018-12-29T19:43:31.315Z,40.03
2018-12-29T19:45:57.888Z,40.07
2018-12-29T19:48:25.241Z,32.97
2018-12-29T19:50:52.245Z,34.60
2018-12-29T19:53:19.168Z,32.03
2018-12-29T19:55:45.648Z,28.50
2018-12-29T19:58:12.101Z,30.00
2018-12-29T20:00:38.788Z,29.53
2018-12-29T20:03:05.640Z,31.67
2018-12-29T20:05:32.452Z,30.87
2018-12-29T20:07:59.025Z,34.83
2018-12-29T20:10:25.379Z,32.40
2018-12-29T20:12:51.756Z,31.70
2018-12-29T20:15:18.461Z,35.23
2018-12-29T20:17:44.912Z,29.10
2018-12-29T20:20:11.440Z,32.73
2018-12-29T20:22:37.824Z,32.60
2018-12-29T20:25:04.468Z,28.90
2018-12-29T20:27:30.952Z,29.03
2018-12-29T20:29:57.712Z,23.17
2018-12-29T20:32:24.294Z,27.77
2018-12-29T20:34:50.650Z,24.10
2018-12-29T20:37:17.041Z,26.10
2018-12-29T20:39:43.605Z,25.50
2018-12-29T20:42:11.321Z,25.00
2018-12-29T20:44:37.960Z,28.30
2018-12-29T20:47:04.550Z,25.77
2018-12-29T20:49:31.096Z,25.73
2018-12-29T20:51:57.655Z,27.33
2018-12-29T20:54:24.115Z,23.83
2018-12-29T20:56:50.572Z,26.60
2018-12-29T20:59:17.084Z,30.20
2018-12-29T21:01:44.168Z,27.43
2018-12-29T21:04:10.693Z,35.10
2018-12-29T21:06:37.256Z,31.57
2018-12-29T21:09:04.433Z,26.20
2018-12-29T21:11:30.810Z,27.93
2018-12-29T21:13:57.296Z,26.97
2018-12-29T21:16:23.748Z,25.53
2018-12-29T21:18:50.436Z,25.43
2018-12-29T21:21:17.096Z,25.07
2018-12-29T21:23:43.587Z,23.20
2018-12-29T21:26:10.150Z,24.70
2018-12-29T21:28:36.728Z,23.27
2018-12-29T21:31:03.283Z,21.03
2018-12-29T21:33:29.659Z,19.57
2018-12-29T21:35:56.141Z,25.27
2018-12-29T21:38:22.617Z,19.87
2018-12-29T21:40:49.284Z,19.00
2018-12-29T21:43:15.723Z,22.37
2018-12-29T21:45:42.334Z,20.77
2018-12-29T21:48:08.980Z,20.87
2018-12-29T21:50:35.848Z,21.73
2018-12-29T21:53:02.404Z,20.40
2018-12-29T21:55:28.806Z,23.30
2018-12-29T21:57:55.256Z,20.27
2018-12-29T22:00:21.834Z,20.43
2018-12-29T22:02:48.225Z,25.37
2018-12-29T22:05:14.823Z,25.43
2018-12-29T22:07:41.308Z,22.57
2018-12-29T22:10:07.776Z,23.07
2018-12-29T22:12:34.323Z,23.63
2018-12-29T22:15:00.801Z,21.97
2018-12-29T22:17:27.356Z,21.10
2018-12-29T22:19:54.032Z,17.13
2018-12-29T22:22:20.492Z,22.37
2018-12-29T22:24:46.940Z,18.10
2018-12-29T22:27:13.605Z,15.77
2018-12-29T22:29:40.173Z,12.57
2018-12-29T22:32:06.648Z,16.27
2018-12-29T22:34:33.191Z,14.43
2018-12-29T22:36:59.660Z,14.70
2018-12-29T22:39:26.416Z,16.27
2018-12-29T22:41:52.812Z,13.17
2018-12-29T22:44:19.164Z,16.43
2018-12-29T22:46:45.639Z,15.50
2018-12-29T22:49:12.196Z,14.57
2018-12-29T22:51:38.670Z,18.83
2018-12-29T22:54:05.128Z,17.70
2018-12-29T22:56:31.592Z,18.40
2018-12-29T22:58:58.047Z,17.10
2018-12-29T23:01:24.487Z,14.57
2018-12-29T23:03:51.006Z,16.73
2018-12-29T23:06:17.465Z,17.83
2018-12-29T23:08:44.157Z,14.83
2018-12-29T23:11:10.898Z,18.37
2018-12-29T23:13:37.488Z,18.67
2018-12-29T23:16:03.939Z,20.17
2018-12-29T23:18:30.510Z,17.00
2018-12-29T23:20:56.956Z,20.47
2018-12-29T23:23:23.530Z,17.87
2018-12-29T23:25:50.397Z,22.67
2018-12-29T23:28:16.783Z,19.67
2018-12-29T23:30:43.240Z,19.63
2018-12-29T23:33:09.812Z,18.23
2018-12-29T23:35:36.364Z,22.23
2018-12-29T23:38:03.268Z,22.27
2018-12-29T23:40:29.651Z,23.60
2018-12-29T23:42:56.203Z,25.50
2018-12-29T23:45:22.680Z,21.37
2018-12-29T23:47:49.131Z,24.83
2018-12-29T23:50:15.628Z,24.20
2018-12-29T23:52:42.405Z,23.27
2018-12-29T23:55:09.110Z,27.37
2018-12-29T23:57:35.949Z,21.50
